Time;durP1;ratioP1;P1;durP2;ratioP2;P2;SDS_P1;SDS_P2;PMS_P1;PMS_P2;Temp;Humidity;BMP_temperature;BMP_pressure;BME280_temperature;BME280_humidity;BME280_pressure;Samples;Min_cycle;Max_cycle;Signal;HPM_P1;HPM_P2
2023/04/26 00:00:30;;;;;;;16.13;6.77;;;;;;;-145.69;100.00;52630.53;5100428;28;20569;-83
2023/04/26 00:02:58;;;;;;;10.10;6.07;;;;;;;-145.69;100.00;52563.22;5100172;28;20247;-83
2023/04/26 00:05:27;;;;;;;15.13;6.90;;;;;;;-145.69;100.00;52577.06;5099701;28;20316;-84
2023/04/26 00:07:53;;;;;;;14.47;7.13;;;;;;;-145.69;100.00;52571.13;5099456;28;20621;-83
2023/04/26 00:10:20;;;;;;;13.73;6.80;;;;;;;-145.69;100.00;52598.84;5100170;28;20198;-84
2023/04/26 00:12:46;;;;;;;18.20;8.30;;;;;;;-145.69;100.00;52606.78;5099910;28;20778;-84
2023/04/26 00:15:13;;;;;;;16.33;7.60;;;;;;;-145.69;100.00;52579.06;5100198;28;20206;-83
2023/04/26 00:17:39;;;;;;;18.87;8.07;;;;;;;-145.69;100.00;52602.81;5099725;28;20657;-84
2023/04/26 00:20:10;;;;;;;17.60;7.87;;;;;;;-145.69;100.00;52573.13;5100526;28;20561;-83
2023/04/26 00:22:38;;;;;;;16.30;7.70;;;;;;;-145.69;100.00;52590.94;5100018;28;20194;-83
2023/04/26 00:25:06;;;;;;;20.17;8.90;;;;;;;-145.69;100.00;52575.09;5099999;28;20230;-83
2023/04/26 00:27:32;;;;;;;24.93;9.00;;;;;;;-145.69;100.00;52588.97;5099057;28;20232;-83
2023/04/26 00:29:59;;;;;;;15.97;7.80;;;;;;;-145.69;100.00;52559.25;5101211;28;20202;-84
2023/04/26 00:32:25;;;;;;;17.10;8.00;;;;;;;-145.69;100.00;52628.56;5100243;28;20202;-83
2023/04/26 00:34:52;;;;;;;16.77;7.63;;;;;;;-145.69;100.00;52563.22;5099012;28;20228;-84
2023/04/26 00:37:18;;;;;;;14.97;7.53;;;;;;;-145.69;100.00;52583.00;5098536;28;20649;-83
2023/04/26 00:39:46;;;;;;;20.53;7.63;;;;;;;-145.69;100.00;52579.06;5098059;28;20206;-83
2023/04/26 00:42:13;;;;;;;16.83;7.33;;;;;;;-145.69;100.00;52559.25;5099267;28;20657;-83
2023/04/26 00:44:39;;;;;;;20.23;8.33;;;;;;;-145.69;100.00;52575.09;5099452;28;20222;-83
2023/04/26 00:47:06;;;;;;;13.80;7.53;;;;;;;-145.69;100.00;52583.00;5099129;28;20194;-82
2023/04/26 00:49:33;;;;;;;19.13;7.57;;;;;;;-145.69;100.00;52614.72;5098583;28;20217;-83
2023/04/26 00:51:59;;;;;;;15.17;7.30;;;;;;;-145.69;100.00;52583.00;5097758;28;20202;-83
2023/04/26 00:54:26;;;;;;;16.23;7.50;;;;;;;-145.69;100.00;52594.91;5096133;28;20202;-83
2023/04/26 00:56:54;;;;;;;14.27;6.93;;;;;;;-145.69;100.00;52590.94;5096599;28;20225;-83
2023/04/26 00:59:21;;;;;;;18.50;6.60;;;;;;;-145.69;100.00;52594.91;5095337;28;20240;-83
2023/04/26 01:01:48;;;;;;;26.63;7.90;;;;;;;-145.69;100.00;52586.97;5095871;28;20228;-83
2023/04/26 01:04:14;;;;;;;14.70;7.63;;;;;;;-145.69;100.00;52590.94;5094785;28;20226;-83
2023/04/26 01:06:41;;;;;;;14.30;6.47;;;;;;;-145.69;100.00;52608.75;5096125;28;20198;-84
2023/04/26 01:09:10;;;;;;;15.97;7.20;;;;;;;-145.69;100.00;52575.09;5096287;28;20198;-84
2023/04/26 01:11:37;;;;;;;14.33;6.83;;;;;;;-145.69;100.00;52573.13;5096162;28;20258;-83
2023/04/26 01:14:07;;;;;;;14.27;6.37;;;;;;;-145.69;100.00;52583.00;5095651;28;20202;-83
2023/04/26 01:16:35;;;;;;;13.43;6.90;;;;;;;-145.69;100.00;52557.28;5094634;28;20202;-83
2023/04/26 01:19:08;;;;;;;12.83;7.40;;;;;;;-145.69;100.00;52614.72;5096511;28;20202;-83
2023/04/26 01:21:35;;;;;;;13.10;7.37;;;;;;;-145.69;100.00;52553.31;5096521;28;20202;-83
2023/04/26 01:24:03;;;;;;;19.07;7.43;;;;;;;-145.69;100.00;52563.22;5097493;28;20251;-84
2023/04/26 01:26:30;;;;;;;19.20;7.97;;;;;;;-145.69;100.00;52563.22;5097486;28;20620;-83
2023/04/26 01:28:56;;;;;;;18.40;8.27;;;;;;;-145.69;100.00;52586.97;5096605;28;20198;-83
2023/04/26 01:31:23;;;;;;;14.87;7.03;;;;;;;-145.69;100.00;52588.97;5088159;28;20202;-84
2023/04/26 01:33:49;;;;;;;21.30;10.47;;;;;;;-145.69;100.00;52600.84;5083065;28;20779;-83
2023/04/26 01:36:16;;;;;;;19.83;8.53;;;;;;;-145.69;100.00;52606.78;5097331;28;20206;-84
2023/04/26 01:38:43;;;;;;;12.77;7.53;;;;;;;-145.69;100.00;52620.66;5096973;28;20206;-84
2023/04/26 01:41:11;;;;;;;14.53;7.73;;;;;;;-145.69;100.00;52614.72;5097620;28;20656;-83
2023/04/26 01:43:37;;;;;;;19.03;6.97;;;;;;;-145.69;100.00;52563.22;5098509;28;20190;-84
2023/04/26 01:46:04;;;;;;;17.67;7.97;;;;;;;-145.69;100.00;52577.06;5097396;28;20229;-84
2023/04/26 01:48:30;;;;;;;19.93;8.70;;;;;;;-145.69;100.00;52588.97;5098925;28;20556;-84
2023/04/26 01:50:57;;;;;;;15.93;7.27;;;;;;;-145.69;100.00;52583.00;5098980;28;20568;-84
2023/04/26 01:53:23;;;;;;;15.97;7.57;;;;;;;-145.69;100.00;52618.66;5098747;28;20558;-84
2023/04/26 01:55:50;;;;;;;16.10;7.00;;;;;;;-145.69;100.00;52638.47;5098521;28;20209;-83
2023/04/26 01:58:17;;;;;;;17.83;7.57;;;;;;;-145.69;100.00;52586.97;5100483;28;20237;-83
2023/04/26 02:00:44;;;;;;;14.53;7.30;;;;;;;-145.69;100.00;52610.75;5099029;28;20194;-83
2023/04/26 02:03:10;;;;;;;13.43;6.57;;;;;;;-145.69;100.00;52594.91;5099316;28;20259;-83
2023/04/26 02:05:37;;;;;;;16.70;7.60;;;;;;;-145.69;100.00;52610.75;5099010;28;20226;-83
2023/04/26 02:08:03;;;;;;;17.83;8.10;;;;;;;-145.69;100.00;52636.50;5098670;28;20194;-83
2023/04/26 02:10:30;;;;;;;16.30;7.43;;;;;;;-145.69;100.00;52606.78;5098518;28;20207;-83
2023/04/26 02:12:56;;;;;;;25.13;9.20;;;;;;;-145.69;100.00;52634.50;5098524;28;20194;-83
2023/04/26 02:15:24;;;;;;;24.40;9.33;;;;;;;-145.69;100.00;52577.06;5098177;28;20197;-83
2023/04/26 02:17:52;;;;;;;21.07;9.27;;;;;;;-145.69;100.00;52644.41;5099800;28;20637;-84
2023/04/26 02:20:19;;;;;;;23.50;9.63;;;;;;;-145.69;100.00;52630.53;5099232;28;20204;-83
2023/04/26 02:22:45;;;;;;;27.03;8.57;;;;;;;-145.69;100.00;52616.69;5099355;28;20208;-84
2023/04/26 02:25:12;;;;;;;30.57;9.80;;;;;;;-145.69;100.00;52622.63;5099996;28;20232;-83
2023/04/26 02:27:38;;;;;;;30.70;10.20;;;;;;;-145.69;100.00;52586.97;5099217;28;20194;-84
2023/04/26 02:30:06;;;;;;;25.77;9.27;;;;;;;-145.69;100.00;52596.88;5098543;28;20194;-84
2023/04/26 02:32:34;;;;;;;22.20;9.20;;;;;;;-145.69;100.00;52618.66;5098843;28;20262;-83
2023/04/26 02:35:01;;;;;;;28.23;9.53;;;;;;;-145.69;100.00;52634.50;5099410;28;20265;-84
2023/04/26 02:37:27;;;;;;;34.40;10.07;;;;;;;-145.69;100.00;52610.75;5099075;28;20293;-84
2023/04/26 02:39:54;;;;;;;28.73;9.83;;;;;;;-145.69;100.00;52642.44;5098391;28;20292;-84
2023/04/26 02:42:20;;;;;;;28.37;10.23;;;;;;;-145.69;100.00;52650.34;5097878;28;20202;-83
2023/04/26 02:44:46;;;;;;;18.57;9.40;;;;;;;-145.69;100.00;52644.41;5098467;28;20229;-83
2023/04/26 02:47:13;;;;;;;24.53;9.60;;;;;;;-145.69;100.00;52608.75;5098643;28;20281;-83
2023/04/26 02:49:41;;;;;;;19.67;9.67;;;;;;;-145.69;100.00;52614.72;5098619;28;20205;-83
2023/04/26 02:52:07;;;;;;;24.40;10.63;;;;;;;-145.69;100.00;52610.75;5102718;28;20204;-83
2023/04/26 02:54:34;;;;;;;28.40;10.03;;;;;;;-145.69;100.00;52624.59;5103038;28;20210;-84
2023/04/26 02:57:00;;;;;;;30.57;10.40;;;;;;;-145.69;100.00;52630.53;5102410;28;20267;-82
2023/04/26 02:59:27;;;;;;;28.13;10.47;;;;;;;-145.69;100.00;52602.81;5102570;28;20285;-84
2023/04/26 03:01:54;;;;;;;29.47;10.90;;;;;;;-145.69;100.00;52579.06;5102855;28;20190;-83
2023/04/26 03:04:20;;;;;;;32.40;10.90;;;;;;;-145.69;100.00;52634.50;5103328;28;20284;-84
2023/04/26 03:06:48;;;;;;;23.57;9.93;;;;;;;-145.69;100.00;52577.06;5102454;28;20568;-84
2023/04/26 03:09:14;;;;;;;29.37;11.23;;;;;;;-145.69;100.00;52622.63;5102704;28;20671;-84
2023/04/26 03:11:41;;;;;;;33.57;10.67;;;;;;;-145.69;100.00;52640.44;5102188;28;20226;-83
2023/04/26 03:14:07;;;;;;;23.10;10.00;;;;;;;-145.69;100.00;52588.97;5102516;28;20197;-83
2023/04/26 03:16:41;;;;;;;26.50;9.53;;;;;;;-145.69;100.00;52630.53;5103031;28;20592;-83
2023/04/26 03:19:08;;;;;;;30.07;11.37;;;;;;;-145.69;100.00;52606.78;5102505;28;20209;-83
2023/04/26 03:21:34;;;;;;;26.13;11.60;;;;;;;-145.69;100.00;52626.59;5102928;28;20194;-83
2023/04/26 03:24:02;;;;;;;26.07;11.10;;;;;;;-145.69;100.00;52590.94;5103916;28;20202;-84
2023/04/26 03:26:29;;;;;;;25.73;11.20;;;;;;;-145.69;100.00;52622.63;5102992;28;20280;-83
2023/04/26 03:28:55;;;;;;;30.70;10.67;;;;;;;-145.69;100.00;52610.75;5101927;28;20220;-83
2023/04/26 03:31:22;;;;;;;31.90;11.13;;;;;;;-145.69;100.00;52614.72;5102389;28;20198;-83
2023/04/26 03:33:49;;;;;;;32.40;10.77;;;;;;;-145.69;100.00;52616.69;5102296;28;20198;-83
2023/04/26 03:36:16;;;;;;;27.67;10.47;;;;;;;-145.69;100.00;52638.47;5101907;28;20206;-83
2023/04/26 03:38:42;;;;;;;27.90;10.70;;;;;;;-145.69;100.00;52618.66;5101908;28;20194;-83
2023/04/26 03:41:10;;;;;;;27.00;9.87;;;;;;;-145.69;100.00;52594.91;5093023;28;20560;-83
2023/04/26 03:43:37;;;;;;;24.07;9.80;;;;;;;-145.69;100.00;52559.25;5101979;28;20198;-83
2023/04/26 03:46:04;;;;;;;27.57;10.27;;;;;;;-145.69;100.00;52590.94;5100894;28;20558;-83
2023/04/26 03:48:31;;;;;;;22.07;9.43;;;;;;;-145.69;100.00;52573.13;5101872;28;20198;-83
2023/04/26 03:50:57;;;;;;;23.63;9.27;;;;;;;-145.69;100.00;52612.72;5101305;28;20197;-83
2023/04/26 03:53:24;;;;;;;20.90;9.73;;;;;;;-145.69;100.00;52600.84;5101779;28;20198;-83
2023/04/26 03:55:50;;;;;;;23.43;8.50;;;;;;;-145.69;100.00;52606.78;5101738;28;20202;-83
2023/04/26 03:58:18;;;;;;;20.90;9.87;;;;;;;-145.69;100.00;52598.84;5101457;28;20202;-83
2023/04/26 04:00:45;;;;;;;24.07;9.37;;;;;;;-145.69;100.00;52606.78;5101272;28;20285;-82
2023/04/26 04:03:11;;;;;;;23.87;9.07;;;;;;;-145.69;100.00;52604.81;5101066;28;20298;-83
2023/04/26 04:05:38;;;;;;;26.67;9.57;;;;;;;-145.69;100.00;52644.41;5101195;28;20308;-83
2023/04/26 04:08:04;;;;;;;23.60;9.90;;;;;;;-145.69;100.00;52596.88;5100673;28;20201;-84
2023/04/26 04:10:31;;;;;;;23.67;9.67;;;;;;;-145.69;100.00;52640.44;5100245;28;20195;-84
2023/04/26 04:12:58;;;;;;;22.20;10.17;;;;;;;-145.69;100.00;52622.63;5101204;28;20190;-83
2023/04/26 04:15:26;;;;;;;20.83;9.90;;;;;;;-145.69;100.00;52622.63;5100760;27;20212;-83
2023/04/26 04:17:52;;;;;;;30.13;11.00;;;;;;;-145.69;100.00;52622.63;5101839;28;20239;-83
2023/04/26 04:20:20;;;;;;;31.07;10.37;;;;;;;-145.69;100.00;52612.72;5103480;28;20801;-84
2023/04/26 04:22:46;;;;;;;25.83;10.40;;;;;;;-145.69;100.00;52666.19;5104475;28;20289;-84
2023/04/26 04:25:13;;;;;;;29.63;9.97;;;;;;;-145.69;100.00;52620.66;5104826;28;20707;-84
2023/04/26 04:27:41;;;;;;;25.27;10.17;;;;;;;-145.69;100.00;52606.78;5104290;28;20572;-83
2023/04/26 04:30:09;;;;;;;29.60;9.67;;;;;;;-145.69;100.00;52602.81;5102303;28;20202;-83
2023/04/26 04:32:38;;;;;;;28.53;10.67;;;;;;;-145.69;100.00;52618.66;5102379;28;20208;-83
2023/04/26 04:35:05;;;;;;;28.07;10.10;;;;;;;-145.69;100.00;52614.72;5102962;28;20194;-83
2023/04/26 04:37:32;;;;;;;25.40;9.80;;;;;;;-145.69;100.00;52614.72;5102121;28;20201;-83
2023/04/26 04:39:59;;;;;;;30.97;10.77;;;;;;;-145.69;100.00;52610.75;5101826;28;20202;-83
2023/04/26 04:42:27;;;;;;;24.13;9.53;;;;;;;-145.69;100.00;52575.09;5102367;28;20296;-82
2023/04/26 04:44:54;;;;;;;33.63;12.23;;;;;;;-145.69;100.00;52571.13;5102034;28;20277;-83
2023/04/26 04:47:20;;;;;;;40.10;14.80;;;;;;;-145.69;100.00;52586.97;5102701;28;20195;-83
2023/04/26 04:49:48;;;;;;;24.63;10.33;;;;;;;-145.69;100.00;52602.81;5101800;28;20206;-83
2023/04/26 04:52:14;;;;;;;21.03;9.67;;;;;;;-145.69;100.00;52622.63;5102216;28;20198;-83
2023/04/26 04:54:41;;;;;;;23.00;9.43;;;;;;;-145.69;100.00;52606.78;5102481;28;20270;-83
2023/04/26 04:57:08;;;;;;;23.83;9.03;;;;;;;-145.69;100.00;52618.66;5101662;28;20205;-83
2023/04/26 04:59:34;;;;;;;22.73;10.00;;;;;;;-145.69;100.00;52638.47;5102920;28;20213;-83
2023/04/26 05:02:01;;;;;;;25.97;9.90;;;;;;;-145.69;100.00;52622.63;5105115;28;20591;-81
2023/04/26 05:04:27;;;;;;;26.30;10.00;;;;;;;-145.69;100.00;52614.72;5105580;28;20696;-84
2023/04/26 05:06:55;;;;;;;21.07;9.53;;;;;;;-145.69;100.00;52596.88;5104648;28;20225;-84
2023/04/26 05:09:22;;;;;;;20.73;9.53;;;;;;;-145.69;100.00;52598.84;5102280;28;20201;-84
2023/04/26 05:11:48;;;;;;;24.63;9.73;;;;;;;-145.69;100.00;52539.44;5099595;28;20204;-83
2023/04/26 05:14:15;;;;;;;25.53;10.47;;;;;;;-145.69;100.00;52594.91;5094483;28;20194;-83
2023/04/26 05:16:50;;;;;;;27.63;9.53;;;;;;;-145.69;100.00;52610.75;5099045;28;20194;-83
2023/04/26 05:19:16;;;;;;;21.93;8.93;;;;;;;-145.69;100.00;52602.81;5097318;28;20199;-83
2023/04/26 05:21:44;;;;;;;25.87;10.03;;;;;;;-145.69;100.00;52586.97;5098297;28;20653;-83
2023/04/26 05:24:12;;;;;;;29.27;10.20;;;;;;;-145.69;100.00;52620.66;5096635;28;20210;-83
2023/04/26 05:26:39;;;;;;;27.27;9.97;;;;;;;-145.69;100.00;52598.84;5098046;28;20680;-83
2023/04/26 05:29:05;;;;;;;28.73;10.87;;;;;;;-145.69;100.00;52642.44;5097205;28;20221;-83
2023/04/26 05:31:32;;;;;;;28.07;11.33;;;;;;;-145.69;100.00;52620.66;5096304;28;20281;-83
2023/04/26 05:33:58;;;;;;;26.87;11.50;;;;;;;-145.69;100.00;52586.97;5096084;28;20194;-83
2023/04/26 05:36:25;;;;;;;22.77;10.53;;;;;;;-145.69;100.00;52606.78;5096283;28;20201;-83
2023/04/26 05:38:52;;;;;;;22.23;9.97;;;;;;;-145.69;100.00;52610.75;5078930;28;20248;-83
2023/04/26 05:41:20;;;;;;;21.60;9.70;;;;;;;-145.69;100.00;52586.97;5092263;28;20191;-84
2023/04/26 05:43:47;;;;;;;22.93;9.53;;;;;;;-145.69;100.00;52610.75;5077519;28;20205;-84
2023/04/26 05:46:13;;;;;;;23.40;9.63;;;;;;;-145.69;100.00;52594.91;5095182;28;20222;-84
2023/04/26 05:48:40;;;;;;;25.03;10.37;;;;;;;-145.69;100.00;52610.75;5099362;28;20201;-84
2023/04/26 05:51:06;;;;;;;21.40;9.57;;;;;;;-145.69;100.00;52598.84;5099336;28;20202;-84
2023/04/26 05:53:33;;;;;;;20.47;9.30;;;;;;;-145.69;100.00;52573.13;5099958;28;20205;-84
2023/04/26 05:56:00;;;;;;;19.90;9.63;;;;;;;-145.69;100.00;52583.00;5099886;28;20201;-84
2023/04/26 05:58:28;;;;;;;17.60;9.37;;;;;;;-145.69;100.00;52579.06;5098689;28;20228;-84
2023/04/26 06:00:54;;;;;;;22.23;9.73;;;;;;;-145.69;100.00;52594.91;5096581;28;20205;-84
2023/04/26 06:03:21;;;;;;;25.00;10.27;;;;;;;-145.69;100.00;52575.09;5097748;28;20232;-84
2023/04/26 06:05:47;;;;;;;19.43;9.07;;;;;;;-145.69;100.00;52606.78;5095744;28;20236;-84
2023/04/26 06:08:14;;;;;;;17.23;8.10;;;;;;;-145.69;100.00;52581.03;5095203;28;20198;-84
2023/04/26 06:10:40;;;;;;;15.73;7.47;;;;;;;-145.69;100.00;52610.75;5095187;28;20198;-84
2023/04/26 06:13:07;;;;;;;15.77;7.77;;;;;;;-145.69;100.00;52594.91;5095302;28;20209;-84
2023/04/26 06:15:35;;;;;;;15.77;7.33;;;;;;;-145.69;100.00;52590.94;5094312;28;20206;-84
2023/04/26 06:18:02;;;;;;;15.40;6.70;;;;;;;-145.69;100.00;52594.91;5094269;28;20657;-84
2023/04/26 06:20:28;;;;;;;12.10;6.80;;;;;;;-145.69;100.00;52551.31;5094408;28;20280;-85
2023/04/26 06:22:55;;;;;;;16.23;6.63;;;;;;;-145.69;100.00;52586.97;5094029;28;20198;-84
2023/04/26 06:25:21;;;;;;;10.43;5.80;;;;;;;-145.69;100.00;52608.75;5095494;28;20200;-83
2023/04/26 06:27:48;;;;;;;15.27;6.47;;;;;;;-145.69;100.00;52602.81;5096645;28;20251;-83
2023/04/26 06:30:15;;;;;;;11.57;5.73;;;;;;;-145.69;100.00;52573.13;5097086;28;20209;-84
2023/04/26 06:32:43;;;;;;;15.40;6.80;;;;;;;-145.69;100.00;52579.06;5096908;28;20209;-84
2023/04/26 06:35:10;;;;;;;14.77;5.80;;;;;;;-145.69;100.00;52557.28;5096614;28;20645;-85
2023/04/26 06:37:37;;;;;;;14.13;6.13;;;;;;;-145.69;100.00;52571.13;5097016;28;20206;-85
2023/04/26 06:40:05;;;;;;;15.97;6.07;;;;;;;-145.69;100.00;52600.84;5097330;28;20194;-84
2023/04/26 06:42:31;;;;;;;14.97;5.27;;;;;;;-145.69;100.00;52579.06;5097432;28;20281;-84
2023/04/26 06:44:58;;;;;;;16.30;5.53;;;;;;;-145.69;100.00;52561.22;5096665;28;20210;-84
2023/04/26 06:47:24;;;;;;;12.73;5.80;;;;;;;-145.69;100.00;52602.81;5096508;28;20222;-84
2023/04/26 06:49:52;;;;;;;17.87;6.00;;;;;;;-145.69;100.00;52547.38;5096715;28;20202;-84
2023/04/26 06:52:18;;;;;;;11.47;5.10;;;;;;;-145.69;100.00;52539.44;5096893;28;20202;-84
2023/04/26 06:54:45;;;;;;;10.10;5.73;;;;;;;-145.69;100.00;52561.22;5098924;28;20734;-85
2023/04/26 06:57:11;;;;;;;12.80;5.07;;;;;;;-145.69;100.00;52594.91;5097750;28;20206;-84
2023/04/26 06:59:38;;;;;;;14.37;5.70;;;;;;;-145.69;100.00;52588.97;5097226;28;20652;-84
2023/04/26 07:02:05;;;;;;;7.50;4.73;;;;;;;-145.69;100.00;52555.28;5096642;28;20201;-84
2023/04/26 07:04:31;;;;;;;12.40;4.73;;;;;;;-145.69;100.00;52515.69;5096669;28;20722;-84
2023/04/26 07:06:59;;;;;;;11.03;4.67;;;;;;;-145.69;100.00;52535.47;5096722;28;20237;-84
2023/04/26 07:09:25;;;;;;;12.93;4.67;;;;;;;-145.69;100.00;52547.38;5098339;28;20202;-84
2023/04/26 07:11:52;;;;;;;7.53;4.37;;;;;;;-145.69;100.00;52541.44;5100412;28;20194;-84
2023/04/26 07:14:18;;;;;;;15.10;5.43;;;;;;;-145.69;100.00;52571.13;5100022;28;20295;-84
2023/04/26 07:16:45;;;;;;;10.70;5.30;;;;;;;-145.69;100.00;52547.38;5099752;28;20676;-84
2023/04/26 07:19:11;;;;;;;12.60;5.40;;;;;;;-145.69;100.00;52523.59;5098669;28;20241;-85
2023/04/26 07:21:38;;;;;;;15.40;5.23;;;;;;;-145.69;100.00;52555.28;5099396;28;20191;-84
2023/04/26 07:24:07;;;;;;;12.80;5.97;;;;;;;-145.69;100.00;52571.13;5098118;28;20198;-84
2023/04/26 07:26:35;;;;;;;9.97;5.93;;;;;;;-145.69;100.00;52559.25;5096492;28;20226;-84
2023/04/26 07:29:02;;;;;;;9.63;4.93;;;;;;;-145.69;100.00;52575.09;5097464;28;20202;-84
2023/04/26 07:31:30;;;;;;;13.70;5.20;;;;;;;-145.69;100.00;52535.47;5096225;28;20226;-84
2023/04/26 07:33:56;;;;;;;15.37;5.67;;;;;;;-145.69;100.00;52533.50;5096085;28;20205;-84
2023/04/26 07:36:23;;;;;;;11.63;5.50;;;;;;;-145.69;100.00;52586.97;5095714;28;20202;-84
2023/04/26 07:38:49;;;;;;;12.63;4.53;;;;;;;-145.69;100.00;52527.56;5094319;28;20710;-85
2023/04/26 07:41:17;;;;;;;10.67;4.40;;;;;;;-145.69;100.00;52535.47;5096096;28;20637;-85
2023/04/26 07:43:44;;;;;;;5.57;3.67;;;;;;;-145.69;100.00;52561.22;5097171;28;20201;-85
2023/04/26 07:46:10;;;;;;;9.43;3.80;;;;;;;-145.69;100.00;52535.47;5099742;28;20692;-85
2023/04/26 07:48:36;;;;;;;6.47;3.13;;;;;;;-145.69;100.00;52557.28;5097713;28;20190;-84
2023/04/26 07:51:08;;;;;;;6.00;3.37;;;;;;;-145.69;100.00;52557.28;5096387;28;20202;-85
2023/04/26 07:53:34;;;;;;;6.73;2.60;;;;;;;-145.69;100.00;52555.28;5095523;28;20222;-85
2023/04/26 07:56:01;;;;;;;7.37;2.83;;;;;;;-145.69;100.00;52537.47;5095741;28;20225;-84
2023/04/26 07:58:29;;;;;;;5.73;3.57;;;;;;;-145.69;100.00;52531.53;5095332;28;20194;-85
2023/04/26 08:00:55;;;;;;;6.20;3.23;;;;;;;-145.69;100.00;52567.16;5096451;28;20241;-85
2023/04/26 08:03:21;;;;;;;8.67;3.23;;;;;;;-145.69;100.00;52509.75;5095620;28;20229;-84
2023/04/26 08:05:48;;;;;;;10.73;3.13;;;;;;;-145.69;100.00;52539.44;5095280;28;20208;-84
2023/04/26 08:08:15;;;;;;;4.57;2.63;;;;;;;-145.69;100.00;52519.63;5095005;28;20218;-85
2023/04/26 08:10:41;;;;;;;6.32;2.97;;;;;;;-145.69;100.00;52535.47;5094607;28;20433;-85
2023/04/26 08:13:08;;;;;;;8.90;3.43;;;;;;;-145.69;97.41;52482.00;5095171;28;20201;-85
2023/04/26 08:15:36;;;;;;;4.87;2.37;;;;;;;-145.69;93.92;52523.59;5093502;28;20248;-85
2023/04/26 08:18:02;;;;;;;5.73;2.50;;;;;;;-145.69;84.12;52491.91;5094584;28;20285;-85
2023/04/26 08:20:29;;;;;;;5.57;2.50;;;;;;;-145.69;96.18;52487.97;5094936;28;20209;-84
2023/04/26 08:22:56;;;;;;;4.70;2.35;;;;;;;-145.69;88.14;52499.84;5094766;28;20198;-85
2023/04/26 08:25:23;;;;;;;7.90;2.90;;;;;;;-145.69;89.21;52511.72;5094329;28;20229;-84
2023/04/26 08:27:50;;;;;;;4.60;2.55;;;;;;;-145.69;100.00;52515.69;5095367;28;20676;-85
2023/04/26 08:30:16;;;;;;;8.20;3.28;;;;;;;-145.69;100.00;52484.00;5096009;28;20226;-85
2023/04/26 08:32:45;;;;;;;8.43;3.33;;;;;;;-145.69;100.00;52531.53;5094309;28;20194;-84
2023/04/26 08:35:11;;;;;;;7.67;3.30;;;;;;;-145.69;100.00;52535.47;5094787;28;20656;-84
2023/04/26 08:37:38;;;;;;;6.73;4.10;;;;;;;-145.69;100.00;52559.25;5094612;28;20213;-84
2023/04/26 08:40:07;;;;;;;7.10;3.30;;;;;;;-145.69;100.00;52535.47;5091425;28;20198;-83
2023/04/26 08:42:38;;;;;;;5.07;2.73;;;;;;;-145.69;100.00;52533.50;5094125;28;20202;-81
2023/04/26 08:45:07;;;;;;;6.80;2.77;;;;;;;-145.69;100.00;52525.59;5094422;28;20676;-82
2023/04/26 08:47:40;;;;;;;5.43;3.07;;;;;;;-145.69;100.00;52507.75;5094076;28;20214;-81
2023/04/26 08:50:10;;;;;;;7.60;3.13;;;;;;;-145.69;100.00;52527.56;5094076;28;20250;-82
2023/04/26 08:52:39;;;;;;;6.37;3.30;;;;;;;-145.69;100.00;52543.41;5094020;28;20194;-80
2023/04/26 08:55:08;;;;;;;7.47;3.27;;;;;;;-145.69;100.00;52563.22;5094315;28;20241;-80
2023/04/26 08:57:35;;;;;;;9.97;3.93;;;;;;;-145.69;100.00;52543.41;5093694;28;20198;-80
2023/04/26 09:00:04;;;;;;;7.03;3.73;;;;;;;-145.69;100.00;52531.53;5094769;28;20194;-82
2023/04/26 09:02:31;;;;;;;7.90;3.70;;;;;;;-145.69;100.00;52513.69;5094189;28;20194;-83
2023/04/26 09:04:57;;;;;;;7.17;3.73;;;;;;;-145.69;100.00;52533.50;5093091;28;20247;-80
2023/04/26 09:07:31;;;;;;;11.93;3.70;;;;;;;-145.69;100.00;52533.50;5093684;28;20224;-84
2023/04/26 09:09:59;;;;;;;5.63;3.40;;;;;;;-145.69;98.06;52531.53;5093762;28;20243;-79
2023/04/26 09:12:26;;;;;;;8.00;3.43;;;;;;;-145.69;97.54;52527.56;5093641;28;20292;-83
2023/04/26 09:14:52;;;;;;;9.40;4.10;;;;;;;-145.69;100.00;52543.41;5093765;28;20198;-83
2023/04/26 09:17:30;;;;;;;8.70;4.10;;;;;;;-145.69;100.00;52505.78;5093535;28;20226;-84
2023/04/26 09:19:57;;;;;;;6.17;3.23;;;;;;;-145.69;99.86;52495.88;5093689;28;20202;-83
2023/04/26 09:22:32;;;;;;;6.03;3.03;;;;;;;-145.69;90.26;52541.44;5093214;28;20556;-82
2023/04/26 09:24:59;;;;;;;7.10;3.43;;;;;;;-145.69;87.18;52495.88;5093931;28;20201;-83
2023/04/26 09:27:37;;;;;;;5.03;2.60;;;;;;;-145.69;77.02;52505.78;5093488;28;20226;-83
2023/04/26 09:30:06;;;;;;;6.70;3.03;;;;;;;-145.69;77.79;52495.88;5093696;28;20584;-83
2023/04/26 09:32:48;;;;;;;8.27;2.60;;;;;;;-145.69;78.63;52523.59;5093441;28;20526;-79
2023/04/26 09:35:25;;;;;;;5.83;2.60;;;;;;;-145.69;78.53;52491.91;5090240;28;20276;-84
2023/04/26 09:37:55;;;;;;;8.07;3.03;;;;;;;-145.69;75.55;52489.94;5093390;28;20197;-85
2023/04/26 09:40:22;;;;;;;8.77;2.40;;;;;;;-145.69;82.93;52503.81;5093369;28;20201;-83
2023/04/26 09:42:57;;;;;;;5.57;2.45;;;;;;;-145.69;80.17;52491.91;5093292;28;20197;-82
2023/04/26 09:45:24;;;;;;;7.05;2.35;;;;;;;-145.69;61.77;52470.13;5093534;28;20229;-84
2023/04/26 09:47:51;;;;;;;7.75;2.60;;;;;;;-145.69;68.19;52480.03;5093035;28;20550;-83
2023/04/26 09:50:26;;;;;;;9.50;2.47;;;;;;;-145.69;64.46;52460.22;5093424;28;20241;-83
2023/04/26 09:52:54;;;;;;;6.03;2.67;;;;;;;-145.69;61.37;52460.22;5093127;28;20236;-83
2023/04/26 09:55:27;;;;;;;6.15;2.85;;;;;;;-145.69;80.76;52464.19;5093255;28;20205;-85
2023/04/26 09:57:53;;;;;;;8.45;2.90;;;;;;;-145.69;65.34;52460.22;5093054;28;20292;-85
2023/04/26 10:00:21;;;;;;;4.85;2.45;;;;;;;-145.69;60.86;52497.84;5092805;28;20198;-85
2023/04/26 10:02:47;;;;;;;5.90;2.58;;;;;;;-145.69;60.33;52472.13;5092446;28;20244;-82
2023/04/26 10:05:15;;;;;;;5.95;2.47;;;;;;;-145.69;61.93;52450.31;5092819;28;20190;-86
2023/04/26 10:07:41;;;;;;;5.15;2.38;;;;;;;-145.69;74.20;52468.16;5093543;28;20229;-84
2023/04/26 10:10:12;;;;;;;6.65;2.65;;;;;;;-145.69;71.96;52476.06;5093909;28;20225;-86
2023/04/26 10:12:40;;;;;;;7.55;2.63;;;;;;;-145.69;72.74;52499.84;5093391;28;20202;-86
2023/04/26 10:15:08;;;;;;;4.65;2.53;;;;;;;-145.69;64.71;52464.19;5093887;28;20207;-85
2023/04/26 10:17:35;;;;;;;8.40;2.28;;;;;;;-145.69;65.79;52456.28;5093483;28;20197;-87
2023/04/26 10:20:03;;;;;;;5.65;1.77;;;;;;;-145.69;62.67;52448.34;5092845;28;20205;-86
2023/04/26 10:22:33;;;;;;;8.18;2.40;;;;;;;-145.69;51.25;52424.59;5095270;28;20201;-87
2023/04/26 10:25:00;;;;;;;9.57;2.90;;;;;;;-145.69;58.92;52454.28;5095434;28;20695;-87
2023/04/26 10:27:50;;;;;;;8.02;2.70;;;;;;;-145.69;60.70;52444.38;5095328;28;20233;-86
2023/04/26 10:30:17;;;;;;;6.07;2.70;;;;;;;-145.69;68.11;52460.22;5094445;28;20568;-86
2023/04/26 10:33:12;;;;;;;9.23;2.55;;;;;;;-145.69;68.64;52474.09;5094153;28;20194;-86
2023/04/26 10:36:00;;;;;;;7.50;3.25;;;;;;;-145.69;70.48;52507.75;5092241;28;20208;-86
2023/04/26 10:38:26;;;;;;;9.98;2.63;;;;;;;-145.69;76.34;52480.03;5094763;28;20201;-86
2023/04/26 10:40:53;;;;;;;6.00;2.83;;;;;;;-145.69;75.06;52468.16;5094585;28;20209;-86
2023/04/26 10:43:31;;;;;;;8.52;2.72;;;;;;;-145.69;75.40;52485.97;5094015;28;20206;-86
2023/04/26 10:46:18;;;;;;;7.03;3.00;;;;;;;-145.69;71.27;52464.19;5093699;28;20721;-85
2023/04/26 10:48:44;;;;;;;5.90;2.58;;;;;;;-145.69;71.78;52476.06;5093810;28;20229;-85
2023/04/26 10:51:12;;;;;;;6.38;2.83;;;;;;;-145.69;69.09;52478.06;5093800;28;20652;-86
2023/04/26 10:54:01;;;;;;;7.10;2.90;;;;;;;-145.69;66.18;52484.00;5093337;28;20218;-85
2023/04/26 10:56:52;;;;;;;3.88;2.50;;;;;;;-145.69;65.02;52468.16;5094779;28;20285;-86
2023/04/26 10:59:21;;;;;;;7.22;2.90;;;;;;;-145.69;66.94;52452.31;5094118;28;20233;-87
2023/04/26 11:01:47;;;;;;;5.53;2.60;;;;;;;-145.69;63.64;52464.19;5094217;28;20201;-86
2023/04/26 11:04:15;;;;;;;7.28;2.90;;;;;;;-145.69;63.01;52466.16;5094108;28;20727;-85
2023/04/26 11:06:48;;;;;;;4.15;2.15;;;;;;;-145.69;53.64;52450.31;5094173;28;20327;-84